EZY221 EGJJ-EGGD
Flight info
| Callsign | EZY221 |
|---|---|
| Flight time | N/A |
| Altitude | 10000 |
| Route | SKERY L22 EMWIP P16 FIMCA N22 BHD N864 DAWLY |
| Aircraft | A320/M-SDE3FGHIRWY/LB1 |
Departure
| Time | N/A |
|---|---|
| Airport | Jersey Airport (EGJJ) |
Arrival
| Time | 2026-05-03 20:32 |
|---|---|
| Airport | Bristol Airport (EGGD) |
| Time | Latitude | Longitude | Altitude | Speed | Heading |
|---|---|---|---|---|---|
| 2026-05-03 20:15 | 50.82848 | -3.42051 | 18379 ft | 453 kts | 6° |
| 2026-05-03 20:15 | 50.85971 | -3.41508 | 18132 ft | 450 kts | 6° |
| 2026-05-03 20:15 | 50.89072 | -3.40974 | 17857 ft | 447 kts | 6° |
| 2026-05-03 20:15 | 50.92155 | -3.40444 | 17497 ft | 443 kts | 6° |
| 2026-05-03 20:16 | 50.95213 | -3.39917 | 16690 ft | 441 kts | 6° |
| 2026-05-03 20:16 | 50.98220 | -3.39394 | 16447 ft | 426 kts | 6° |
| 2026-05-03 20:16 | 51.01116 | -3.38888 | 16313 ft | 411 kts | 6° |
| 2026-05-03 20:16 | 51.03912 | -3.38399 | 16148 ft | 397 kts | 6° |
| 2026-05-03 20:17 | 51.06592 | -3.37343 | 15466 ft | 397 kts | 26° |
| 2026-05-03 20:17 | 51.08795 | -3.34973 | 15337 ft | 381 kts | 46° |
| 2026-05-03 20:17 | 51.10313 | -3.31657 | 15211 ft | 364 kts | 67° |
| 2026-05-03 20:17 | 51.10981 | -3.27877 | 14919 ft | 351 kts | 86° |
| 2026-05-03 20:18 | 51.11147 | -3.24025 | 14498 ft | 348 kts | 90° |
| 2026-05-03 20:18 | 51.11255 | -3.20195 | 14094 ft | 346 kts | 90° |
| 2026-05-03 20:18 | 51.11352 | -3.16383 | 13687 ft | 343 kts | 90° |
| 2026-05-03 20:18 | 51.11442 | -3.12598 | 13235 ft | 341 kts | 90° |
| 2026-05-03 20:19 | 51.11528 | -3.08837 | 12784 ft | 339 kts | 90° |
| 2026-05-03 20:19 | 51.11606 | -3.05106 | 12421 ft | 337 kts | 90° |
| 2026-05-03 20:19 | 51.11679 | -3.01381 | 12162 ft | 336 kts | 90° |
| 2026-05-03 20:19 | 51.11748 | -2.97666 | 11904 ft | 335 kts | 90° |
| 2026-05-03 20:20 | 51.11812 | -2.93968 | 11646 ft | 334 kts | 90° |
| 2026-05-03 20:20 | 51.11872 | -2.90283 | 11393 ft | 332 kts | 90° |
| 2026-05-03 20:20 | 51.11928 | -2.86610 | 11143 ft | 331 kts | 90° |
| 2026-05-03 20:20 | 51.11980 | -2.82949 | 10886 ft | 330 kts | 90° |
| 2026-05-03 20:21 | 51.12030 | -2.79304 | 10641 ft | 329 kts | 90° |
| 2026-05-03 20:21 | 51.12077 | -2.75662 | 10395 ft | 328 kts | 90° |
| 2026-05-03 20:21 | 51.12120 | -2.72034 | 10151 ft | 327 kts | 90° |
| 2026-05-03 20:21 | 51.12160 | -2.68430 | 9909 ft | 324 kts | 90° |
| 2026-05-03 20:22 | 51.12196 | -2.64905 | 9739 ft | 312 kts | 90° |
| 2026-05-03 20:22 | 51.12443 | -2.61555 | 9602 ft | 301 kts | 75° |
| 2026-05-03 20:22 | 51.13109 | -2.58449 | 9403 ft | 293 kts | 71° |
| 2026-05-03 20:22 | 51.13813 | -2.55435 | 9069 ft | 289 kts | 70° |
| 2026-05-03 20:23 | 51.14519 | -2.52439 | 8686 ft | 287 kts | 70° |
| 2026-05-03 20:23 | 51.15219 | -2.49465 | 8307 ft | 285 kts | 70° |
| 2026-05-03 20:23 | 51.15902 | -2.46552 | 7942 ft | 284 kts | 70° |
| 2026-05-03 20:23 | 51.16588 | -2.43620 | 7567 ft | 282 kts | 70° |
| 2026-05-03 20:24 | 51.17493 | -2.40889 | 7196 ft | 280 kts | 49° |
| 2026-05-03 20:24 | 51.19001 | -2.38952 | 6804 ft | 279 kts | 32° |
| 2026-05-03 20:24 | 51.20658 | -2.37350 | 6405 ft | 278 kts | 31° |
| 2026-05-03 20:24 | 51.22317 | -2.35794 | 6005 ft | 276 kts | 30° |
| 2026-05-03 20:25 | 51.23967 | -2.34250 | 5604 ft | 274 kts | 30° |
| 2026-05-03 20:25 | 51.25628 | -2.32785 | 5209 ft | 272 kts | 21° |
| 2026-05-03 20:25 | 51.27468 | -2.32238 | 4809 ft | 269 kts | 3° |
| 2026-05-03 20:25 | 51.29334 | -2.32141 | 4605 ft | 269 kts | 1° |
| 2026-05-03 20:26 | 51.31206 | -2.32089 | 4472 ft | 269 kts | 0° |
| 2026-05-03 20:26 | 51.33082 | -2.32053 | 4341 ft | 268 kts | 0° |
| 2026-05-03 20:26 | 51.34947 | -2.32031 | 4213 ft | 268 kts | 0° |
| 2026-05-03 20:26 | 51.36792 | -2.32314 | 4024 ft | 267 kts | 343° |
| 2026-05-03 20:27 | 51.38376 | -2.33776 | 3765 ft | 262 kts | 315° |
| 2026-05-03 20:27 | 51.39327 | -2.36178 | 3512 ft | 253 kts | 287° |
| 2026-05-03 20:27 | 51.39505 | -2.38919 | 3260 ft | 245 kts | 266° |
| 2026-05-03 20:27 | 51.39405 | -2.41577 | 3161 ft | 232 kts | 266° |
| 2026-05-03 20:28 | 51.39310 | -2.44068 | 3160 ft | 216 kts | 266° |
| 2026-05-03 20:28 | 51.39226 | -2.46386 | 3153 ft | 201 kts | 266° |
| 2026-05-03 20:28 | 51.39147 | -2.48537 | 3181 ft | 184 kts | 266° |
| 2026-05-03 20:28 | 51.39074 | -2.50530 | 3069 ft | 176 kts | 266° |
| 2026-05-03 20:29 | 51.39002 | -2.52463 | 2846 ft | 172 kts | 266° |
| 2026-05-03 20:29 | 51.38932 | -2.54352 | 2643 ft | 169 kts | 266° |
| 2026-05-03 20:29 | 51.38865 | -2.56153 | 2445 ft | 156 kts | 266° |
| 2026-05-03 20:29 | 51.38802 | -2.57839 | 2232 ft | 149 kts | 266° |
| 2026-05-03 20:30 | 51.38741 | -2.59484 | 2029 ft | 147 kts | 266° |
| 2026-05-03 20:30 | 51.38679 | -2.61107 | 1834 ft | 146 kts | 266° |
| 2026-05-03 20:30 | 51.38619 | -2.62705 | 1638 ft | 145 kts | 266° |
| 2026-05-03 20:30 | 51.38558 | -2.64316 | 1436 ft | 144 kts | 266° |
| 2026-05-03 20:31 | 51.38497 | -2.65911 | 1239 ft | 142 kts | 266° |
| 2026-05-03 20:31 | 51.38437 | -2.67484 | 1044 ft | 140 kts | 265° |
| 2026-05-03 20:31 | 51.38378 | -2.69031 | 856 ft | 139 kts | 265° |
| 2026-05-03 20:31 | 51.38319 | -2.70561 | 673 ft | 137 kts | 265° |
| 2026-05-03 20:32 | 51.38258 | -2.72019 | 616 ft | 115 kts | 266° |
| 2026-05-03 20:32 | 51.38225 | -2.72922 | 613 ft | 40 kts | 267° |
| 2026-05-03 20:32 | 51.38219 | -2.73123 | 620 ft | 14 kts | 267° |
| 2026-05-03 20:32 | 51.38218 | -2.73274 | 623 ft | 13 kts | 284° |
| 2026-05-03 20:33 | 51.38291 | -2.73344 | 622 ft | 13 kts | 356° |
| 2026-05-03 20:33 | 51.38367 | -2.73296 | 629 ft | 11 kts | 48° |
| 2026-05-03 20:33 | 51.38387 | -2.73184 | 616 ft | 10 kts | 86° |
| 2026-05-03 20:33 | 51.38391 | -2.73080 | 616 ft | 9 kts | 87° |
| 2026-05-03 20:34 | 51.38395 | -2.72954 | 621 ft | 15 kts | 86° |
| 2026-05-03 20:34 | 51.38402 | -2.72758 | 615 ft | 20 kts | 87° |
| 2026-05-03 20:34 | 51.38411 | -2.72532 | 625 ft | 21 kts | 86° |
| 2026-05-03 20:34 | 51.38421 | -2.72284 | 615 ft | 23 kts | 86° |
| 2026-05-03 20:35 | 51.38431 | -2.72017 | 614 ft | 25 kts | 86° |
| 2026-05-03 20:35 | 51.38433 | -2.71731 | 614 ft | 27 kts | 86° |
| 2026-05-03 20:35 | 51.38442 | -2.71471 | 613 ft | 15 kts | 88° |
| 2026-05-03 20:35 | 51.38449 | -2.71305 | 613 ft | 15 kts | 86° |
| 2026-05-03 20:36 | 51.38456 | -2.71149 | 616 ft | 13 kts | 86° |
| 2026-05-03 20:36 | 51.38462 | -2.71005 | 613 ft | 13 kts | 86° |
| 2026-05-03 20:36 | 51.38467 | -2.70876 | 612 ft | 11 kts | 86° |
| 2026-05-03 20:36 | 51.38487 | -2.70831 | 618 ft | 4 kts | 17° |
| 2026-05-03 20:37 | 51.38519 | -2.70835 | 612 ft | 4 kts | 353° |
| 2026-05-03 20:37 | 51.38547 | -2.70837 | 612 ft | 4 kts | 356° |
| 2026-05-03 20:37 | 51.38565 | -2.70858 | 626 ft | 3 kts | 282° |
| 2026-05-03 20:37 | 51.38566 | -2.70890 | 612 ft | 2 kts | 270° |
| 2026-05-03 20:38 | 51.38565 | -2.70912 | 617 ft | 2 kts | 266° |
| 2026-05-03 20:38 | 51.38565 | -2.70920 | 616 ft | 0 kts | 266° |